createdAt,value
2019-05-22T00:04:37.923Z,100394.30
2019-05-22T00:09:46.251Z,100387.31
2019-05-22T00:14:53.057Z,100372.92
2019-05-22T00:19:58.831Z,100372.92
2019-05-22T00:25:05.457Z,100386.91
2019-05-22T00:30:13.707Z,100398.33
2019-05-22T00:35:21.957Z,100402.27
2019-05-22T00:40:29.813Z,100397.03
2019-05-22T00:45:36.967Z,100397.92
2019-05-22T00:51:00.458Z,100413.72
2019-05-22T00:56:17.182Z,100414.16
2019-05-22T01:01:28.384Z,100418.55
2019-05-22T01:06:35.909Z,100426.89
2019-05-22T01:11:45.549Z,100428.62
2019-05-22T01:16:52.907Z,100419.48
2019-05-22T01:22:00.869Z,100415.55
2019-05-22T01:27:08.833Z,100415.53
2019-05-22T01:32:26.638Z,100428.67
2019-05-22T01:37:31.930Z,100437.91
2019-05-22T01:42:40.180Z,100435.70
2019-05-22T01:47:53.254Z,100427.83
2019-05-22T01:52:59.644Z,100426.95
2019-05-22T01:58:06.126Z,100436.58
2019-05-22T02:03:12.081Z,100432.20
2019-05-22T02:08:18.172Z,100428.70
2019-05-22T02:13:33.781Z,100436.15
2019-05-22T02:18:42.056Z,100437.03
2019-05-22T02:23:49.000Z,100446.66
2019-05-22T02:28:55.707Z,100447.98
2019-05-22T02:34:06.001Z,100443.17
2019-05-22T02:39:15.794Z,100448.84
2019-05-22T02:44:24.056Z,100444.03
2019-05-22T02:49:31.265Z,100451.94
2019-05-22T02:54:37.946Z,100454.11
2019-05-22T02:59:43.924Z,100444.02
2019-05-22T03:05:01.824Z,100452.77
2019-05-22T03:10:09.599Z,100444.44
2019-05-22T03:15:18.321Z,100438.75
2019-05-22T03:20:26.437Z,100450.13
2019-05-22T03:25:33.631Z,100436.57
2019-05-22T03:30:43.107Z,100440.53
2019-05-22T03:35:51.815Z,100454.53
2019-05-22T03:40:58.028Z,100444.04
2019-05-22T03:46:06.696Z,100442.70
2019-05-22T03:51:15.298Z,100438.77
2019-05-22T03:56:22.618Z,100440.05
2019-05-22T04:01:29.162Z,100439.61
2019-05-22T04:06:35.348Z,100450.10
2019-05-22T04:11:43.891Z,100455.79
2019-05-22T04:16:50.280Z,100461.45
2019-05-22T04:21:56.884Z,100475.88
2019-05-22T04:27:04.841Z,100482.86
2019-05-22T04:32:13.237Z,100510.88
2019-05-22T04:37:20.186Z,100502.06
2019-05-22T04:42:27.511Z,100503.33
2019-05-22T04:47:35.648Z,100496.25
2019-05-22T04:52:42.250Z,100496.75
2019-05-22T04:57:48.708Z,100494.94
2019-05-22T05:02:54.221Z,100505.05
2019-05-22T05:07:59.731Z,100503.30
2019-05-22T05:13:05.219Z,100508.52
2019-05-22T05:18:10.440Z,100503.23
2019-05-22T05:23:15.931Z,100496.75
2019-05-22T05:28:22.195Z,100501.19
2019-05-22T05:33:31.164Z,100501.58
2019-05-22T05:38:39.768Z,100508.60
2019-05-22T05:43:45.302Z,100513.00
2019-05-22T05:48:52.959Z,100512.98
2019-05-22T05:54:10.971Z,100513.41
2019-05-22T05:59:16.965Z,100524.70
2019-05-22T06:04:34.616Z,100522.82
2019-05-22T06:09:35.525Z,100528.91
2019-05-22T06:14:41.575Z,100523.20
2019-05-22T06:19:53.719Z,100521.03
2019-05-22T06:25:02.896Z,100526.63
2019-05-22T06:30:13.146Z,100529.59
2019-05-22T06:35:19.077Z,100538.34
2019-05-22T06:40:26.233Z,100536.66
2019-05-22T06:45:35.523Z,100535.09
2019-05-22T06:50:39.645Z,100525.25
2019-05-22T06:55:45.309Z,100524.67
2019-05-22T07:00:51.109Z,100521.05
2019-05-22T07:05:57.303Z,100525.48
2019-05-22T07:11:03.189Z,100524.15
2019-05-22T07:16:08.875Z,100530.31
2019-05-22T07:21:15.674Z,100527.06
2019-05-22T07:26:20.974Z,100532.35
2019-05-22T07:31:28.154Z,100541.63
2019-05-22T07:36:34.423Z,100535.37
2019-05-22T07:41:40.406Z,100532.17
2019-05-22T07:46:46.555Z,100531.22
2019-05-22T07:52:00.727Z,100532.58
2019-05-22T07:57:00.471Z,100538.98
2019-05-22T08:02:09.732Z,100546.14
2019-05-22T08:07:17.943Z,100549.30
2019-05-22T08:12:24.514Z,100553.27
2019-05-22T08:17:30.937Z,100549.70
2019-05-22T08:22:38.125Z,100548.97
2019-05-22T08:27:44.143Z,100560.23
2019-05-22T08:32:49.764Z,100560.75
2019-05-22T08:37:56.962Z,100567.73
2019-05-22T08:43:02.947Z,100568.98
2019-05-22T08:48:08.784Z,100565.70
2019-05-22T08:53:16.447Z,100558.83
2019-05-22T08:58:23.526Z,100562.03
2019-05-22T09:03:29.362Z,100568.47
2019-05-22T09:08:35.273Z,100573.77
2019-05-22T09:13:41.439Z,100572.81
2019-05-22T09:18:47.262Z,100584.19
2019-05-22T09:23:53.248Z,100591.92
2019-05-22T09:28:59.204Z,100593.72
2019-05-22T09:34:05.296Z,100597.80
2019-05-22T09:39:12.425Z,100597.55
2019-05-22T09:44:17.699Z,100599.22
2019-05-22T09:49:24.158Z,100603.94
2019-05-22T09:54:31.794Z,100612.45
2019-05-22T09:59:37.202Z,100613.52
2019-05-22T10:04:43.550Z,100624.67
2019-05-22T10:09:48.991Z,100618.70
2019-05-22T10:14:54.530Z,100621.81
2019-05-22T10:20:00.325Z,100623.85
2019-05-22T10:25:15.910Z,100626.73
2019-05-22T10:30:16.877Z,100631.19
2019-05-22T10:35:27.027Z,100626.58
2019-05-22T10:40:33.505Z,100635.34
2019-05-22T10:45:39.468Z,100634.05
2019-05-22T10:50:44.896Z,100633.28
2019-05-22T10:55:51.853Z,100637.91
2019-05-22T11:00:58.035Z,100633.63
2019-05-22T11:06:07.551Z,100632.40
2019-05-22T11:11:17.361Z,100625.48
2019-05-22T11:16:23.778Z,100638.25
2019-05-22T11:21:29.140Z,100642.70
2019-05-22T11:26:35.180Z,100637.39
2019-05-22T11:31:40.829Z,100639.30
2019-05-22T11:36:46.311Z,100632.23
2019-05-22T11:41:52.181Z,100636.74
2019-05-22T11:46:59.020Z,100635.70
2019-05-22T11:52:05.662Z,100638.91
2019-05-22T11:57:12.061Z,100644.73
2019-05-22T12:02:18.932Z,100636.73
2019-05-22T12:07:24.739Z,100638.41
2019-05-22T12:12:35.178Z,100636.59
2019-05-22T12:17:39.540Z,100638.41
2019-05-22T12:22:44.976Z,100637.42
2019-05-22T12:27:50.236Z,100647.80
2019-05-22T12:32:57.122Z,100651.69
2019-05-22T12:38:04.002Z,100654.44
2019-05-22T12:43:11.557Z,100655.67
2019-05-22T12:48:18.293Z,100655.26
2019-05-22T12:53:24.781Z,100651.45
2019-05-22T12:58:32.359Z,100652.43
2019-05-22T13:03:40.190Z,100649.77
2019-05-22T13:08:45.797Z,100649.97
2019-05-22T13:13:51.854Z,100649.35
2019-05-22T13:18:57.654Z,100658.00
2019-05-22T13:24:05.971Z,100660.10
2019-05-22T13:29:14.186Z,100661.49
2019-05-22T13:34:20.621Z,100660.45
2019-05-22T13:39:27.613Z,100658.72
2019-05-22T13:44:32.872Z,100659.78
2019-05-22T13:49:40.701Z,100655.80
2019-05-22T13:54:46.530Z,100661.47
2019-05-22T13:59:52.601Z,100659.48
2019-05-22T14:04:59.810Z,100660.02
2019-05-22T14:10:07.468Z,100654.27
2019-05-22T14:15:13.380Z,100650.95
2019-05-22T14:20:19.811Z,100664.59
2019-05-22T14:25:26.161Z,100661.83
2019-05-22T14:30:32.128Z,100660.55
2019-05-22T14:35:48.117Z,100663.33
2019-05-22T14:40:47.251Z,100670.89
2019-05-22T14:45:52.799Z,100663.28
2019-05-22T14:50:59.186Z,100667.41
2019-05-22T14:56:10.394Z,100662.92
2019-05-22T15:01:14.165Z,100670.09
2019-05-22T15:06:20.943Z,100668.36
2019-05-22T15:11:26.504Z,100660.77
2019-05-22T15:16:32.942Z,100661.12
2019-05-22T15:21:38.622Z,100661.58
2019-05-22T15:26:44.144Z,100665.94
2019-05-22T15:31:49.559Z,100655.11
2019-05-22T15:36:55.468Z,100666.04
2019-05-22T15:42:05.065Z,100666.56
2019-05-22T15:47:11.146Z,100679.19
2019-05-22T15:52:19.880Z,100672.94
2019-05-22T15:57:26.648Z,100679.89
2019-05-22T16:02:33.787Z,100686.22
2019-05-22T16:07:40.368Z,100683.57
2019-05-22T16:12:47.347Z,100681.91
2019-05-22T16:18:10.337Z,100676.07
2019-05-22T16:23:04.259Z,100673.89
2019-05-22T16:28:10.731Z,100674.26
2019-05-22T16:33:17.485Z,100669.23
2019-05-22T16:38:24.648Z,100673.43
2019-05-22T16:43:47.371Z,100680.86
2019-05-22T16:48:38.712Z,100676.78
2019-05-22T16:53:47.030Z,100678.88
2019-05-22T16:58:53.078Z,100682.50
2019-05-22T17:04:01.602Z,100676.19
2019-05-22T17:09:10.005Z,100684.27
2019-05-22T17:14:17.461Z,100682.36
2019-05-22T17:19:27.434Z,100685.52
2019-05-22T17:24:34.011Z,100683.87
2019-05-22T17:29:37.634Z,100685.75
2019-05-22T17:34:43.109Z,100672.44
2019-05-22T17:39:50.887Z,100679.70
2019-05-22T17:44:57.621Z,100681.75
2019-05-22T17:50:03.978Z,100689.60
2019-05-22T17:55:10.497Z,100697.64
2019-05-22T18:00:18.819Z,100709.99
2019-05-22T18:05:25.904Z,100719.05
2019-05-22T18:10:34.062Z,100722.05
2019-05-22T18:15:40.209Z,100734.20
2019-05-22T18:20:47.769Z,100732.07
2019-05-22T18:25:52.670Z,100737.83
2019-05-22T18:30:58.437Z,100743.44
2019-05-22T18:36:03.775Z,100747.98
2019-05-22T18:41:09.025Z,100758.28
2019-05-22T18:46:14.933Z,100764.27
2019-05-22T18:51:20.537Z,100768.81
2019-05-22T18:56:26.038Z,100769.36
2019-05-22T19:01:31.715Z,100776.95
2019-05-22T19:06:37.084Z,100778.34
2019-05-22T19:11:42.823Z,100784.12
2019-05-22T19:16:48.222Z,100793.89
2019-05-22T19:21:53.805Z,100800.95
2019-05-22T19:26:59.449Z,100804.08
2019-05-22T19:32:04.772Z,100803.66
2019-05-22T19:37:10.142Z,100812.47
2019-05-22T19:42:16.291Z,100809.01
2019-05-22T19:47:23.469Z,100806.73
2019-05-22T19:52:41.012Z,100818.63
2019-05-22T19:57:37.331Z,100818.16
2019-05-22T20:02:44.098Z,100819.08
2019-05-22T20:07:49.658Z,100823.12
2019-05-22T20:12:56.161Z,100812.12
2019-05-22T20:18:02.405Z,100820.48
2019-05-22T20:23:08.516Z,100828.96
2019-05-22T20:28:15.155Z,100835.09
2019-05-22T20:33:20.774Z,100835.98
2019-05-22T20:38:26.932Z,100842.58
2019-05-22T20:43:33.434Z,100838.16
2019-05-22T20:48:38.879Z,100853.55
2019-05-22T20:53:54.155Z,100854.02
2019-05-22T20:58:53.692Z,100858.41
2019-05-22T21:04:03.850Z,100866.77
2019-05-22T21:09:09.377Z,100869.85
2019-05-22T21:14:15.740Z,100871.60
2019-05-22T21:19:23.678Z,100874.25
2019-05-22T21:24:30.106Z,100873.36
2019-05-22T21:29:35.720Z,100885.66
2019-05-22T21:34:42.057Z,100884.30
2019-05-22T21:39:47.908Z,100890.42
2019-05-22T21:44:53.348Z,100897.34
2019-05-22T21:49:58.762Z,100904.71
2019-05-22T21:55:08.820Z,100909.06
2019-05-22T22:00:34.990Z,100908.55
2019-05-22T22:05:42.784Z,100902.34
2019-05-22T22:10:50.086Z,100904.89
2019-05-22T22:15:55.928Z,100912.28
2019-05-22T22:21:01.529Z,100915.34
2019-05-22T22:26:24.059Z,100918.38
2019-05-22T22:31:17.116Z,100911.78
2019-05-22T22:36:22.984Z,100912.63
2019-05-22T22:41:28.313Z,100917.33
2019-05-22T22:46:38.490Z,100914.14
2019-05-22T22:51:44.613Z,100913.23
2019-05-22T22:56:49.772Z,100904.00
2019-05-22T23:01:57.584Z,100907.58
2019-05-22T23:07:06.235Z,100905.32
2019-05-22T23:12:14.171Z,100912.77
2019-05-22T23:17:20.959Z,100901.28
2019-05-22T23:22:26.723Z,100896.88
2019-05-22T23:27:33.614Z,100893.28
2019-05-22T23:32:41.501Z,100892.33
2019-05-22T23:37:46.817Z,100898.00
2019-05-22T23:42:52.701Z,100901.36
2019-05-22T23:48:05.819Z,100892.17
2019-05-22T23:53:12.574Z,100894.92
2019-05-22T23:58:19.673Z,100884.88
